« Back
NWS Peachtree City, Ga » Text Product » CSG Terminal Aerodrome Forecast

Printer-friendly Version
Current Version              Previous Versions:   1  2  3  4  5  6  7  8  9  

Terminal Aerodrome Forecast

FTUS42 KFFC 270530
KCSG 270530Z 2706/2806 08009KT P6SM SCT035
     FM270900 09006KT P6SM BKN015
     FM271400 10007KT P6SM BKN020
     FM271700 09008KT P6SM SCT025 SCT250
     FM280500 08003KT P6SM SCT021=

USA.gov is the U.S. government's official web portal to all federal, state and local government web resources and services.